F/V Izaskun Berria — ECBA — position and weather

sailwx.info

Track history (hours):
 
Tides and Currents Weather Stations Pressure Air Temp Water Temp Dewpoint Dewpoint Depression Visibility Wind Speed Wind Dir Waves Ship Positions

F/V Izaskun Berria

Last reported at 2017-Oct-14 16:40 UTC. Time now 2017-Oct-17 11:39 UTC.
Position N 43°19' W 002°11'.

Length 36 m.

Type: Fishing. MMSI: 224086790.

Date/timePositionNaut miles runAvg speedWind from/ knotsBaromVisibWave heightAir tempDewpointWater temp
2017-Oct-14 16:40N 43°19' W 002°11'210.2
2017-Oct-14 16:30N 43°20' W 002°10'510.2
2017-Oct-14 16:00N 43°23' W 002°04'810.2
2017-Oct-14 15:15N 43°29' W 001°57'210.2
2017-Oct-14 15:00N 43°30' W 001°54'510.2
2017-Oct-14 14:30N 43°34' W 001°49'1 1.4
2017-Oct-14 13:58N 43°34' W 001°49'8 7.0
2017-Oct-14 12:53N 43°33' W 001°60'2 5.2
2017-Oct-14 12:30N 43°35' W 001°59'5 9.2
2017-Oct-14 12:00N 43°34' W 001°53'3 6.0
2017-Oct-14 11:31N 43°36' W 001°50'1 1.1
2017-Oct-14 10:56N 43°36' W 001°50'7 7.1
2017-Oct-14 09:58N 43°36' W 001°59'0 0.3
2017-Oct-14 09:29N 43°36' W 001°60'1 1.3
2017-Oct-14 09:00N 43°35' W 001°60'1 1.5
2017-Oct-14 08:30N 43°35' W 001°60'1 2.7
2017-Oct-14 08:00N 43°33' W 001°59'3 6.0
2017-Oct-14 07:30N 43°32' W 001°56'4 5.8
2017-Oct-14 06:47N 43°33' W 002°01'2 6.4
2017-Oct-14 06:30N 43°34' W 001°59'4 8.3
2017-Oct-14 06:00N 43°30' W 002°00'5 9.5
2017-Oct-14 05:29N 43°26' W 002°04'5 9.5
2017-Oct-14 05:00N 43°22' W 002°08'4 7.3
2017-Oct-14 04:30N 43°19' W 002°11'0 0.1
2017-Oct-14 04:00N 43°19' W 002°11'0 0.0
2017-Oct-14 03:30N 43°19' W 002°11'0 0.0
2017-Oct-14 03:00N 43°19' W 002°11'0 0.0
2017-Oct-14 02:30N 43°19' W 002°11'0 0.0
2017-Oct-14 02:00N 43°19' W 002°11'0 0.0
2017-Oct-14 01:30N 43°19' W 002°11'0 0.0
2017-Oct-14 01:00N 43°19' W 002°11'0 0.0
2017-Oct-14 00:30N 43°19' W 002°11'0 0.0
2017-Oct-14 00:00N 43°19' W 002°11'0 0.0
2017-Oct-13 23:30N 43°19' W 002°11'0 0.5
2017-Oct-13 22:44N 43°19' W 002°11'0 0.2
2017-Oct-13 22:14N 43°19' W 002°12'0 0.2
2017-Oct-13 22:00N 43°19' W 002°12'0 0.1
2017-Oct-13 21:30N 43°19' W 002°12'0 0.0
2017-Oct-13 21:00N 43°19' W 002°12'0 0.0
2017-Oct-13 20:30N 43°19' W 002°12'0 0.0
2017-Oct-13 20:00N 43°19' W 002°12'0 0.0
2017-Oct-13 19:30N 43°19' W 002°12'0 0.0
2017-Oct-13 19:00N 43°19' W 002°12'0 0.9
2017-Oct-13 18:30N 43°19' W 002°11'2 4.6
2017-Oct-13 18:00N 43°21' W 002°13'510.6
2017-Oct-13 17:30N 43°25' W 002°17'510.8
2017-Oct-13 17:00N 43°30' W 002°20'510.6
2017-Oct-13 16:30N 43°35' W 002°24'6 8.8
2017-Oct-13 15:52N 43°39' W 002°28'410.1
2017-Oct-13 15:30N 43°43' W 002°30'510.0
2017-Oct-13 15:00N 43°47' W 002°34'510.2
2017-Oct-13 14:28N 43°51' W 002°38'710.0
2017-Oct-13 13:46N 43°57' W 002°44'2 8.3
2017-Oct-13 13:30N 43°59' W 002°45'1 1.3
2017-Oct-13 12:55N 43°60' W 002°45'1 1.6
2017-Oct-13 12:30N 43°59' W 002°45'4 3.3
2017-Oct-13 11:14N 44°03' W 002°47'1 1.4
2017-Oct-13 10:45N 44°03' W 002°47'3 3.0
2017-Oct-13 09:52N 44°01' W 002°47'4 2.3
2017-Oct-13 08:15N 44°04' W 002°44'1 3.1
2017-Oct-13 07:57N 44°03' W 002°44'  
2017-Oct-07 21:24N 45°46' W 004°12'109 4.3
2017-Oct-06 19:59N 44°16' W 002°47'4 9.3
2017-Oct-06 19:30N 44°12' W 002°44'5 9.1
2017-Oct-06 19:00N 44°08' W 002°41'5 9.0
2017-Oct-06 18:30N 44°04' W 002°38'4 9.0
2017-Oct-06 18:00N 43°60' W 002°35'4 8.4
2017-Oct-06 17:30N 43°56' W 002°32'4 8.0
2017-Oct-06 17:00N 43°53' W 002°29'4 8.6
2017-Oct-06 16:30N 43°49' W 002°26'4 8.7
2017-Oct-06 16:00N 43°45' W 002°23'4 8.6
2017-Oct-06 15:30N 43°41' W 002°21'4 8.5
2017-Oct-06 15:00N 43°38' W 002°18'4 8.2
2017-Oct-06 14:30N 43°34' W 002°15'4 8.1
2017-Oct-06 14:00N 43°30' W 002°13'1 2.2
2017-Oct-06 13:30N 43°29' W 002°13'0 0.4
2017-Oct-06 13:01N 43°29' W 002°13'1 1.2
2017-Oct-06 12:31N 43°29' W 002°12'2 3.8
2017-Oct-06 12:01N 43°31' W 002°12'510.4
2017-Oct-06 11:30N 43°36' W 002°11'510.2
2017-Oct-06 11:00N 43°41' W 002°09'5 9.9
2017-Oct-06 10:30N 43°46' W 002°07'5 9.9
2017-Oct-06 10:00N 43°50' W 002°05'510.5
2017-Oct-06 09:30N 43°56' W 002°03'6 9.6
2017-Oct-06 08:50N 44°02' W 002°06'1 3.8
2017-Oct-06 08:30N 44°02' W 002°08'4 8.1
2017-Oct-06 08:00N 43°58' W 002°08'3 6.9
2017-Oct-06 07:30N 43°54' W 002°07'2 3.7
2017-Oct-06 07:00N 43°53' W 002°05'4 8.5
2017-Oct-06 06:30N 43°50' W 002°02'1 1.9
2017-Oct-06 06:00N 43°49' W 002°02'0 0.1
2017-Oct-06 05:30N 43°49' W 002°02'0 0.5
2017-Oct-06 04:58N 43°49' W 002°02'0 0.5
2017-Oct-06 04:30N 43°49' W 002°02'0 0.5
2017-Oct-06 04:00N 43°49' W 002°03'0 0.5
2017-Oct-06 03:30N 43°49' W 002°03'0 0.4
2017-Oct-06 03:00N 43°49' W 002°03'0 0.4
2017-Oct-06 02:29N 43°49' W 002°03'0 0.4
2017-Oct-06 02:00N 43°50' W 002°04'0 0.3
2017-Oct-06 01:30N 43°50' W 002°04'0 0.4
2017-Oct-06 01:00N 43°50' W 002°04'0 0.5
2017-Oct-06 00:30N 43°50' W 002°04'0 0.5
2017-Oct-06 00:00N 43°50' W 002°04'0 0.5
2017-Oct-05 23:30N 43°50' W 002°05'0 0.5
2017-Oct-05 23:00N 43°50' W 002°05'0 0.5
2017-Oct-05 22:30N 43°51' W 002°05'0 0.5
2017-Oct-05 22:00N 43°51' W 002°05'0 0.5
2017-Oct-05 21:30N 43°51' W 002°06'0 0.5
2017-Oct-05 21:00N 43°51' W 002°06'0 0.5
2017-Oct-05 20:30N 43°51' W 002°06'0 0.5
2017-Oct-05 20:00N 43°52' W 002°06'0 0.4
2017-Oct-05 19:30N 43°52' W 002°06'0 0.5
2017-Oct-05 19:00N 43°52' W 002°06'1 1.4
2017-Oct-05 18:29N 43°52' W 002°07'4 7.7
2017-Oct-05 18:00N 43°52' W 002°12'3 6.5
2017-Oct-05 17:30N 43°55' W 002°12'3 5.8
2017-Oct-05 17:00N 43°58' W 002°12'10 6.7
2017-Oct-05 15:30N 44°08' W 002°16'510.4
2017-Oct-05 15:00N 44°13' W 002°18'4 6.1
2017-Oct-05 14:19N 44°16' W 002°21'3 9.1
2017-Oct-05 13:59N 44°17' W 002°25'3 5.3
2017-Oct-05 13:26N 44°18' W 002°29'2 3.3
2017-Oct-05 12:54N 44°17' W 002°29'3 8.7
2017-Oct-05 12:30N 44°13' W 002°29'0 0.6
2017-Oct-05 12:00N 44°13' W 002°30'4 8.4
2017-Oct-05 11:31N 44°12' W 002°24'5 9.7
2017-Oct-05 11:00N 44°09' W 002°19'3 6.1
2017-Oct-05 10:30N 44°07' W 002°16'3 6.5
2017-Oct-05 10:01N 44°05' W 002°12'5 9.0
2017-Oct-05 09:30N 44°02' W 002°08'3 6.9
2017-Oct-05 09:00N 43°59' W 002°06'0 0.2
2017-Oct-05 08:30N 43°59' W 002°06'1 2.2
2017-Oct-05 08:01N 43°59' W 002°05'  
Track history (hours):
 
Tides and Currents Weather Stations Pressure Air Temp Water Temp Dewpoint Dewpoint Depression Visibility Wind Speed Wind Dir Waves Ship Positions

F/V Izaskun Berria

Last reported at 2017-Oct-14 16:40 UTC. Time now 2017-Oct-17 11:39 UTC.
Position N 43°19' W 002°11'.

Length 36 m.

Type: Fishing. MMSI: 224086790.

Date/timePositionNaut miles runAvg speedWind from/ knotsBaromVisibWave heightAir tempDewpointWater temp
2017-Oct-14 16:40N 43°19' W 002°11'210.2
2017-Oct-14 16:30N 43°20' W 002°10'510.2
2017-Oct-14 16:00N 43°23' W 002°04'810.2
2017-Oct-14 15:15N 43°29' W 001°57'210.2
2017-Oct-14 15:00N 43°30' W 001°54'510.2
2017-Oct-14 14:30N 43°34' W 001°49'1 1.4
2017-Oct-14 13:58N 43°34' W 001°49'8 7.0
2017-Oct-14 12:53N 43°33' W 001°60'2 5.2
2017-Oct-14 12:30N 43°35' W 001°59'5 9.2
2017-Oct-14 12:00N 43°34' W 001°53'3 6.0
2017-Oct-14 11:31N 43°36' W 001°50'1 1.1
2017-Oct-14 10:56N 43°36' W 001°50'7 7.1
2017-Oct-14 09:58N 43°36' W 001°59'0 0.3
2017-Oct-14 09:29N 43°36' W 001°60'1 1.3
2017-Oct-14 09:00N 43°35' W 001°60'1 1.5
2017-Oct-14 08:30N 43°35' W 001°60'1 2.7
2017-Oct-14 08:00N 43°33' W 001°59'3 6.0
2017-Oct-14 07:30N 43°32' W 001°56'4 5.8
2017-Oct-14 06:47N 43°33' W 002°01'2 6.4
2017-Oct-14 06:30N 43°34' W 001°59'4 8.3
2017-Oct-14 06:00N 43°30' W 002°00'5 9.5
2017-Oct-14 05:29N 43°26' W 002°04'5 9.5
2017-Oct-14 05:00N 43°22' W 002°08'4 7.3
2017-Oct-14 04:30N 43°19' W 002°11'0 0.1
2017-Oct-14 04:00N 43°19' W 002°11'0 0.0
2017-Oct-14 03:30N 43°19' W 002°11'0 0.0
2017-Oct-14 03:00N 43°19' W 002°11'0 0.0
2017-Oct-14 02:30N 43°19' W 002°11'0 0.0
2017-Oct-14 02:00N 43°19' W 002°11'0 0.0
2017-Oct-14 01:30N 43°19' W 002°11'0 0.0
2017-Oct-14 01:00N 43°19' W 002°11'0 0.0
2017-Oct-14 00:30N 43°19' W 002°11'0 0.0
2017-Oct-14 00:00N 43°19' W 002°11'0 0.0
2017-Oct-13 23:30N 43°19' W 002°11'0 0.5
2017-Oct-13 22:44N 43°19' W 002°11'0 0.2
2017-Oct-13 22:14N 43°19' W 002°12'0 0.2
2017-Oct-13 22:00N 43°19' W 002°12'0 0.1
2017-Oct-13 21:30N 43°19' W 002°12'0 0.0
2017-Oct-13 21:00N 43°19' W 002°12'0 0.0
2017-Oct-13 20:30N 43°19' W 002°12'0 0.0
2017-Oct-13 20:00N 43°19' W 002°12'0 0.0
2017-Oct-13 19:30N 43°19' W 002°12'0 0.0
2017-Oct-13 19:00N 43°19' W 002°12'0 0.9
2017-Oct-13 18:30N 43°19' W 002°11'2 4.6
2017-Oct-13 18:00N 43°21' W 002°13'510.6
2017-Oct-13 17:30N 43°25' W 002°17'510.8
2017-Oct-13 17:00N 43°30' W 002°20'510.6
2017-Oct-13 16:30N 43°35' W 002°24'6 8.8
2017-Oct-13 15:52N 43°39' W 002°28'410.1
2017-Oct-13 15:30N 43°43' W 002°30'510.0
2017-Oct-13 15:00N 43°47' W 002°34'510.2
2017-Oct-13 14:28N 43°51' W 002°38'710.0
2017-Oct-13 13:46N 43°57' W 002°44'2 8.3
2017-Oct-13 13:30N 43°59' W 002°45'1 1.3
2017-Oct-13 12:55N 43°60' W 002°45'1 1.6
2017-Oct-13 12:30N 43°59' W 002°45'4 3.3
2017-Oct-13 11:14N 44°03' W 002°47'1 1.4
2017-Oct-13 10:45N 44°03' W 002°47'3 3.0
2017-Oct-13 09:52N 44°01' W 002°47'4 2.3
2017-Oct-13 08:15N 44°04' W 002°44'1 3.1
2017-Oct-13 07:57N 44°03' W 002°44'  
2017-Oct-07 21:24N 45°46' W 004°12'109 4.3
2017-Oct-06 19:59N 44°16' W 002°47'4 9.3
2017-Oct-06 19:30N 44°12' W 002°44'5 9.1
2017-Oct-06 19:00N 44°08' W 002°41'5 9.0
2017-Oct-06 18:30N 44°04' W 002°38'4 9.0
2017-Oct-06 18:00N 43°60' W 002°35'4 8.4
2017-Oct-06 17:30N 43°56' W 002°32'4 8.0
2017-Oct-06 17:00N 43°53' W 002°29'4 8.6
2017-Oct-06 16:30N 43°49' W 002°26'4 8.7
2017-Oct-06 16:00N 43°45' W 002°23'4 8.6
2017-Oct-06 15:30N 43°41' W 002°21'4 8.5
2017-Oct-06 15:00N 43°38' W 002°18'4 8.2
2017-Oct-06 14:30N 43°34' W 002°15'4 8.1
2017-Oct-06 14:00N 43°30' W 002°13'1 2.2
2017-Oct-06 13:30N 43°29' W 002°13'0 0.4
2017-Oct-06 13:01N 43°29' W 002°13'1 1.2
2017-Oct-06 12:31N 43°29' W 002°12'2 3.8
2017-Oct-06 12:01N 43°31' W 002°12'510.4
2017-Oct-06 11:30N 43°36' W 002°11'510.2
2017-Oct-06 11:00N 43°41' W 002°09'5 9.9
2017-Oct-06 10:30N 43°46' W 002°07'5 9.9
2017-Oct-06 10:00N 43°50' W 002°05'510.5
2017-Oct-06 09:30N 43°56' W 002°03'6 9.6
2017-Oct-06 08:50N 44°02' W 002°06'1 3.8
2017-Oct-06 08:30N 44°02' W 002°08'4 8.1
2017-Oct-06 08:00N 43°58' W 002°08'3 6.9
2017-Oct-06 07:30N 43°54' W 002°07'2 3.7
2017-Oct-06 07:00N 43°53' W 002°05'4 8.5
2017-Oct-06 06:30N 43°50' W 002°02'1 1.9
2017-Oct-06 06:00N 43°49' W 002°02'0 0.1
2017-Oct-06 05:30N 43°49' W 002°02'0 0.5
2017-Oct-06 04:58N 43°49' W 002°02'0 0.5
2017-Oct-06 04:30N 43°49' W 002°02'0 0.5
2017-Oct-06 04:00N 43°49' W 002°03'0 0.5
2017-Oct-06 03:30N 43°49' W 002°03'0 0.4
2017-Oct-06 03:00N 43°49' W 002°03'0 0.4
2017-Oct-06 02:29N 43°49' W 002°03'0 0.4
2017-Oct-06 02:00N 43°50' W 002°04'0 0.3
2017-Oct-06 01:30N 43°50' W 002°04'0 0.4
2017-Oct-06 01:00N 43°50' W 002°04'0 0.5
2017-Oct-06 00:30N 43°50' W 002°04'0 0.5
2017-Oct-06 00:00N 43°50' W 002°04'0 0.5
2017-Oct-05 23:30N 43°50' W 002°05'0 0.5
2017-Oct-05 23:00N 43°50' W 002°05'0 0.5
2017-Oct-05 22:30N 43°51' W 002°05'0 0.5
2017-Oct-05 22:00N 43°51' W 002°05'0 0.5
2017-Oct-05 21:30N 43°51' W 002°06'0 0.5
2017-Oct-05 21:00N 43°51' W 002°06'0 0.5
2017-Oct-05 20:30N 43°51' W 002°06'0 0.5
2017-Oct-05 20:00N 43°52' W 002°06'0 0.4
2017-Oct-05 19:30N 43°52' W 002°06'0 0.5
2017-Oct-05 19:00N 43°52' W 002°06'1 1.4
2017-Oct-05 18:29N 43°52' W 002°07'4 7.7
2017-Oct-05 18:00N 43°52' W 002°12'3 6.5
2017-Oct-05 17:30N 43°55' W 002°12'3 5.8
2017-Oct-05 17:00N 43°58' W 002°12'10 6.7
2017-Oct-05 15:30N 44°08' W 002°16'510.4
2017-Oct-05 15:00N 44°13' W 002°18'4 6.1
2017-Oct-05 14:19N 44°16' W 002°21'3 9.1
2017-Oct-05 13:59N 44°17' W 002°25'3 5.3
2017-Oct-05 13:26N 44°18' W 002°29'2 3.3
2017-Oct-05 12:54N 44°17' W 002°29'3 8.7
2017-Oct-05 12:30N 44°13' W 002°29'0 0.6
2017-Oct-05 12:00N 44°13' W 002°30'4 8.4
2017-Oct-05 11:31N 44°12' W 002°24'5 9.7
2017-Oct-05 11:00N 44°09' W 002°19'3 6.1
2017-Oct-05 10:30N 44°07' W 002°16'3 6.5
2017-Oct-05 10:01N 44°05' W 002°12'5 9.0
2017-Oct-05 09:30N 44°02' W 002°08'3 6.9
2017-Oct-05 09:00N 43°59' W 002°06'0 0.2
2017-Oct-05 08:30N 43°59' W 002°06'1 2.2
2017-Oct-05 08:01N 43°59' W 002°05'  

Dump ship's entire track history